Gaines Landing, Arkansas
Current Conditions -  °F | °C
As of 7:53 PM on Thursday 20 Nov 2014 (Local Time) from KGLH Reporting Station
Overcast Overcast  
Wind Chill: 12°   Ceiling: 5500
Heat Index: 12°   Visibility: 9mi
Dew Point:   Wind: 3mph
Humidity: 83%   Direction: 120°ESE
Pressure: 30.18"   Gusts: NA
Location:  33.3324°N, 91.3183°W
Report Text: KGLH 210153Z AUTO 12003KT 9SM OVC055 12/09 A3018 RMK AO2 SLP228 T01170089
Loading
Personal Weather Stations






























Interactive Weather Map New forecast layout! Learn more

10-Day Weather Forecast

Advertisements
Track Severe Weather on mobile